Delta Virtual Airport Information Service

Dublin Airport

ICAO: EIDW Country: Ireland
Latitude: 53.4214 Longitude: -6.27
Latest Arrival : EIN151 (EGLL-EIDW) Latest Departure : SAS536 (4) (EIDW-ESSA)


WX CaptureLIVE
Data provided by noaa.gov | Fetched at 12:18:47

METAR : EIDW 281700Z 20006KT 160V240 9999 -RA FEW015 SCT044 BKN200 14/11 Q0994 NOSIG

TAF : EIDW 281513Z 2815/2912 17005KT 9999 BKN020 BECMG 2815/2816 21010KT TEMPO 2816/2819 4000 SHRA BKN012 SCT018CB BECMG 2817/2819 26008KT BECMG 2822/2824 VRB03KT BECMG 2902/2904 31007KT TEMPO 2903/2910 4000 SHRA BKN012 SCT018CB BECMG 2907/2909 25008KT


Runway Data for EIDW
Data provided by openaviationdata.com

Runway ID Mag Var Hdg Length Elevation Surface ILS Freq ILS Id ILS Slope
10 -5 100° 8842 ft 242 ft Asphalt 108.9 IDE 3
16 -5 162° 6824 ft 242 ft Asphalt 111.5 IAC 3
28 -5 280° 8842 ft 242 ft Asphalt 111.35 IDW 3
34 -5 342° 6824 ft 242 ft Asphalt -- -- --

Dublin Airport, Ireland
Use only for reference purposes



Not for navigational purposes.